Time;durP1;ratioP1;P1;durP2;ratioP2;P2;SDS_P1;SDS_P2;PMS_P1;PMS_P2;Temp;Humidity;BMP_temperature;BMP_pressure;BME280_temperature;BME280_humidity;BME280_pressure;Samples;Min_cycle;Max_cycle;Signal;HPM_P1;HPM_P2
2023/09/08 00:02:11;;;;;;;18.20;12.00;;;;;;;-128.00;-1.00;-1.00;105625;1251;1004475;-80
2023/09/08 00:04:38;;;;;;;15.90;11.80;;;;;;;-128.00;-1.00;-1.00;105476;1253;1003591;-80
2023/09/08 00:07:04;;;;;;;14.30;11.70;;;;;;;-128.00;-1.00;-1.00;105553;1252;1005542;-80
2023/09/08 00:09:30;;;;;;;20.90;11.60;;;;;;;-128.00;-1.00;-1.00;105554;1251;1005490;-80
2023/09/08 00:11:57;;;;;;;16.50;12.20;;;;;;;-128.00;-1.00;-1.00;105465;1252;1003917;-80
2023/09/08 00:14:24;;;;;;;16.60;11.10;;;;;;;-128.00;-1.00;-1.00;105587;1253;1004787;-80
2023/09/08 00:16:54;;;;;;;16.60;11.10;;;;;;;-128.00;-1.00;-1.00;105585;1253;1003605;-81
2023/09/08 00:19:21;;;;;;;16.40;10.50;;;;;;;-128.00;-1.00;-1.00;105740;1251;1057312;-80
2023/09/08 00:21:48;;;;;;;17.10;11.30;;;;;;;-128.00;-1.00;-1.00;105554;1251;1003510;-81
2023/09/08 00:24:15;;;;;;;13.90;10.30;;;;;;;-128.00;-1.00;-1.00;105544;1251;1003676;-80
2023/09/08 00:26:41;;;;;;;17.50;9.80;;;;;;;-128.00;-1.00;-1.00;105565;1251;1003642;-80
2023/09/08 00:29:09;;;;;;;13.50;10.70;;;;;;;-128.00;-1.00;-1.00;105593;1251;1004326;-80
2023/09/08 00:31:35;;;;;;;17.50;12.30;;;;;;;-128.00;-1.00;-1.00;105600;1251;1004876;-80
2023/09/08 00:34:02;;;;;;;17.90;11.60;;;;;;;-128.00;-1.00;-1.00;105572;1251;1003790;-80
2023/09/08 00:36:28;;;;;;;14.90;11.00;;;;;;;-128.00;-1.00;-1.00;105560;1251;1005222;-80
2023/09/08 00:38:54;;;;;;;18.10;11.20;;;;;;;-128.00;-1.00;-1.00;105593;1251;1004503;-80
2023/09/08 00:41:23;;;;;;;15.50;10.40;;;;;;;-128.00;-1.00;-1.00;105617;1251;1003291;-80
2023/09/08 00:43:50;;;;;;;17.30;10.50;;;;;;;-128.00;-1.00;-1.00;105603;1251;1003625;-80
2023/09/08 00:46:16;;;;;;;17.40;10.20;;;;;;;-128.00;-1.00;-1.00;105588;1250;1004848;-80
2023/09/08 00:48:43;;;;;;;16.60;10.10;;;;;;;-128.00;-1.00;-1.00;105431;1250;1004225;-80
2023/09/08 00:51:10;;;;;;;16.20;10.00;;;;;;;-128.00;-1.00;-1.00;105642;1250;1003759;-80
2023/09/08 00:53:37;;;;;;;16.60;10.60;;;;;;;-128.00;-1.00;-1.00;105536;1251;1004403;-80
2023/09/08 00:56:03;;;;;;;15.40;11.10;;;;;;;-128.00;-1.00;-1.00;105733;1250;1004192;-80
2023/09/08 00:58:30;;;;;;;16.70;10.90;;;;;;;-128.00;-1.00;-1.00;105760;1250;1004552;-80
2023/09/08 01:00:58;;;;;;;13.30;10.00;;;;;;;-128.00;-1.00;-1.00;105691;1251;1004324;-80
2023/09/08 01:03:24;;;;;;;16.20;10.40;;;;;;;-128.00;-1.00;-1.00;105777;1250;1004770;-80
2023/09/08 01:05:51;;;;;;;16.70;10.30;;;;;;;-128.00;-1.00;-1.00;105617;1251;1003811;-80
2023/09/08 01:08:18;;;;;;;12.20;8.80;;;;;;;-128.00;-1.00;-1.00;105613;1250;1004628;-80
2023/09/08 01:10:45;;;;;;;15.10;11.00;;;;;;;-128.00;-1.00;-1.00;105333;1251;1004975;-80
2023/09/08 01:13:12;;;;;;;13.40;9.80;;;;;;;-128.00;-1.00;-1.00;105603;1250;1004553;-80
2023/09/08 01:15:38;;;;;;;18.10;10.50;;;;;;;-128.00;-1.00;-1.00;105585;1250;1003398;-80
2023/09/08 01:18:04;;;;;;;13.40;9.70;;;;;;;-128.00;-1.00;-1.00;105602;1251;1004632;-80
2023/09/08 01:20:46;;;;;;;15.10;10.00;;;;;;;-128.00;-1.00;-1.00;105566;1250;1005098;-80
2023/09/08 01:23:24;;;;;;;16.20;9.30;;;;;;;-128.00;-1.00;-1.00;105594;1251;1058778;-80
2023/09/08 01:25:54;;;;;;;14.00;10.60;;;;;;;-128.00;-1.00;-1.00;105711;1251;1045836;-80
2023/09/08 01:28:20;;;;;;;16.10;10.40;;;;;;;-128.00;-1.00;-1.00;105618;1251;1047955;-80
2023/09/08 01:30:49;;;;;;;14.90;10.70;;;;;;;-128.00;-1.00;-1.00;105600;1250;1062317;-80
2023/09/08 01:33:16;;;;;;;15.30;9.90;;;;;;;-128.00;-1.00;-1.00;105539;1251;1004494;-80
2023/09/08 01:35:43;;;;;;;13.90;9.20;;;;;;;-128.00;-1.00;-1.00;105667;1251;1004633;-80
2023/09/08 01:38:09;;;;;;;14.20;10.10;;;;;;;-128.00;-1.00;-1.00;105572;1251;1003924;-80
2023/09/08 01:40:36;;;;;;;14.60;10.10;;;;;;;-128.00;-1.00;-1.00;105635;1251;1004604;-80
2023/09/08 01:43:03;;;;;;;16.90;10.80;;;;;;;-128.00;-1.00;-1.00;105660;1251;1004039;-80
2023/09/08 01:45:29;;;;;;;15.40;10.50;;;;;;;-128.00;-1.00;-1.00;105787;1250;1004362;-80
2023/09/08 01:47:55;;;;;;;17.80;10.70;;;;;;;-128.00;-1.00;-1.00;105805;1251;1004648;-80
2023/09/08 01:50:24;;;;;;;13.40;9.40;;;;;;;-128.00;-1.00;-1.00;105761;1251;1003975;-80
2023/09/08 01:52:51;;;;;;;13.90;9.70;;;;;;;-128.00;-1.00;-1.00;105827;1251;1047603;-80
2023/09/08 01:55:18;;;;;;;13.60;9.20;;;;;;;-128.00;-1.00;-1.00;105627;1250;1004041;-80
2023/09/08 01:57:44;;;;;;;14.50;9.50;;;;;;;-128.00;-1.00;-1.00;105648;1251;1003773;-80
2023/09/08 02:00:11;;;;;;;16.40;9.40;;;;;;;-128.00;-1.00;-1.00;105659;1251;1003630;-80
2023/09/08 02:02:38;;;;;;;14.70;9.60;;;;;;;-128.00;-1.00;-1.00;105638;1251;1003572;-80
2023/09/08 02:05:06;;;;;;;13.90;9.80;;;;;;;-128.00;-1.00;-1.00;105451;1252;1004650;-80
2023/09/08 02:07:32;;;;;;;12.80;9.00;;;;;;;-128.00;-1.00;-1.00;105583;1254;1003800;-80
2023/09/08 02:09:59;;;;;;;14.50;10.50;;;;;;;-128.00;-1.00;-1.00;105600;1254;1004631;-80
2023/09/08 02:12:25;;;;;;;14.50;9.30;;;;;;;-128.00;-1.00;-1.00;105645;1252;1004883;-80
2023/09/08 02:14:52;;;;;;;12.90;8.70;;;;;;;-128.00;-1.00;-1.00;105554;1253;1004365;-80
2023/09/08 02:17:18;;;;;;;14.20;9.00;;;;;;;-128.00;-1.00;-1.00;105395;1253;1004099;-80
2023/09/08 02:19:45;;;;;;;12.20;8.60;;;;;;;-128.00;-1.00;-1.00;105614;1251;1004116;-80
2023/09/08 02:22:11;;;;;;;13.90;9.30;;;;;;;-128.00;-1.00;-1.00;105606;1250;1004242;-80
2023/09/08 02:24:38;;;;;;;11.80;8.20;;;;;;;-128.00;-1.00;-1.00;105752;1251;1004065;-80
2023/09/08 02:27:04;;;;;;;12.90;8.10;;;;;;;-128.00;-1.00;-1.00;105615;1250;1004656;-80
2023/09/08 02:29:31;;;;;;;14.80;8.90;;;;;;;-128.00;-1.00;-1.00;105551;1251;1004655;-80
2023/09/08 02:31:58;;;;;;;13.40;9.40;;;;;;;-128.00;-1.00;-1.00;105564;1251;1004206;-80
2023/09/08 02:34:25;;;;;;;12.20;8.90;;;;;;;-128.00;-1.00;-1.00;105598;1251;1004863;-80
2023/09/08 02:36:51;;;;;;;12.20;9.10;;;;;;;-128.00;-1.00;-1.00;105646;1251;1004109;-80
2023/09/08 02:39:17;;;;;;;15.20;10.30;;;;;;;-128.00;-1.00;-1.00;105642;1251;1004614;-80
2023/09/08 02:41:44;;;;;;;13.10;8.80;;;;;;;-128.00;-1.00;-1.00;105638;1251;1003876;-80
2023/09/08 02:44:10;;;;;;;14.50;9.90;;;;;;;-128.00;-1.00;-1.00;105624;1250;1005159;-80
2023/09/08 02:46:37;;;;;;;13.30;9.10;;;;;;;-128.00;-1.00;-1.00;105616;1251;1005007;-80
2023/09/08 02:49:03;;;;;;;16.00;9.60;;;;;;;-128.00;-1.00;-1.00;105613;1251;1004688;-80
2023/09/08 02:51:30;;;;;;;11.60;9.10;;;;;;;-128.00;-1.00;-1.00;105589;1250;1005095;-80
2023/09/08 02:53:56;;;;;;;16.80;10.50;;;;;;;-128.00;-1.00;-1.00;105610;1250;1004271;-80
2023/09/08 02:56:23;;;;;;;15.30;9.10;;;;;;;-128.00;-1.00;-1.00;105589;1251;1003979;-80
2023/09/08 02:58:49;;;;;;;16.20;9.50;;;;;;;-128.00;-1.00;-1.00;105588;1250;1004709;-80
2023/09/08 03:01:20;;;;;;;16.00;10.50;;;;;;;-128.00;-1.00;-1.00;105605;1251;1004373;-80
2023/09/08 03:03:46;;;;;;;13.40;9.90;;;;;;;-128.00;-1.00;-1.00;105482;1251;1046475;-80
2023/09/08 03:06:14;;;;;;;14.30;9.80;;;;;;;-128.00;-1.00;-1.00;105599;1252;1004592;-80
2023/09/08 03:08:40;;;;;;;14.60;9.40;;;;;;;-128.00;-1.00;-1.00;105548;1254;1005188;-80
2023/09/08 03:11:08;;;;;;;16.20;9.60;;;;;;;-128.00;-1.00;-1.00;105538;1253;1004443;-80
2023/09/08 03:13:35;;;;;;;15.30;9.40;;;;;;;-128.00;-1.00;-1.00;105385;1253;1003871;-80
2023/09/08 03:16:04;;;;;;;15.30;9.10;;;;;;;-128.00;-1.00;-1.00;105516;1253;1004051;-80
2023/09/08 03:18:32;;;;;;;12.00;9.00;;;;;;;-128.00;-1.00;-1.00;105747;1252;1046902;-80
2023/09/08 03:21:00;;;;;;;16.40;8.90;;;;;;;-128.00;-1.00;-1.00;105635;1251;1004448;-80
2023/09/08 03:23:26;;;;;;;16.90;10.90;;;;;;;-128.00;-1.00;-1.00;105600;1251;1004202;-80
2023/09/08 03:25:53;;;;;;;15.50;9.60;;;;;;;-128.00;-1.00;-1.00;105617;1250;1003861;-80
2023/09/08 03:28:19;;;;;;;14.80;8.40;;;;;;;-128.00;-1.00;-1.00;105595;1251;1004069;-80
2023/09/08 03:30:46;;;;;;;14.00;9.00;;;;;;;-128.00;-1.00;-1.00;105628;1251;1005022;-80
2023/09/08 03:33:12;;;;;;;15.60;9.30;;;;;;;-128.00;-1.00;-1.00;105632;1251;1004195;-80
2023/09/08 03:35:38;;;;;;;22.40;10.20;;;;;;;-128.00;-1.00;-1.00;105618;1251;1004169;-80
2023/09/08 03:38:05;;;;;;;15.20;9.80;;;;;;;-128.00;-1.00;-1.00;105584;1251;1004406;-80
2023/09/08 03:40:32;;;;;;;11.60;8.10;;;;;;;-128.00;-1.00;-1.00;105615;1251;1004181;-80
2023/09/08 03:42:58;;;;;;;11.30;8.50;;;;;;;-128.00;-1.00;-1.00;105606;1250;1004166;-80
2023/09/08 03:45:24;;;;;;;13.10;8.40;;;;;;;-128.00;-1.00;-1.00;105627;1251;1003959;-80
2023/09/08 03:47:51;;;;;;;13.10;8.40;;;;;;;-128.00;-1.00;-1.00;105604;1251;1004138;-79
2023/09/08 03:50:17;;;;;;;12.30;8.70;;;;;;;-128.00;-1.00;-1.00;105574;1251;1004625;-80
2023/09/08 03:52:44;;;;;;;13.20;8.80;;;;;;;-128.00;-1.00;-1.00;105559;1251;1004237;-80
2023/09/08 03:55:11;;;;;;;15.40;9.50;;;;;;;-128.00;-1.00;-1.00;105597;1251;1003610;-80
2023/09/08 03:57:37;;;;;;;13.30;9.80;;;;;;;-128.00;-1.00;-1.00;105623;1251;1004961;-80
2023/09/08 04:00:06;;;;;;;14.50;9.20;;;;;;;-128.00;-1.00;-1.00;105730;1251;1003985;-80
2023/09/08 04:02:33;;;;;;;14.40;8.70;;;;;;;-128.00;-1.00;-1.00;105763;1251;1059638;-80
2023/09/08 04:04:59;;;;;;;14.60;8.80;;;;;;;-128.00;-1.00;-1.00;105738;1252;1004250;-80
2023/09/08 04:07:26;;;;;;;13.70;8.90;;;;;;;-128.00;-1.00;-1.00;105748;1255;1003642;-80
2023/09/08 04:09:52;;;;;;;13.80;9.20;;;;;;;-128.00;-1.00;-1.00;105642;1253;1004190;-80
2023/09/08 04:12:19;;;;;;;14.30;8.50;;;;;;;-128.00;-1.00;-1.00;105690;1254;1003929;-80
2023/09/08 04:14:45;;;;;;;14.10;8.70;;;;;;;-128.00;-1.00;-1.00;105585;1253;1004914;-80
2023/09/08 04:17:11;;;;;;;16.00;9.50;;;;;;;-128.00;-1.00;-1.00;105568;1252;1004413;-80
2023/09/08 04:19:38;;;;;;;11.30;9.00;;;;;;;-128.00;-1.00;-1.00;105565;1253;1004067;-80
2023/09/08 04:22:04;;;;;;;15.20;10.70;;;;;;;-128.00;-1.00;-1.00;105544;1253;1004240;-80
2023/09/08 04:24:35;;;;;;;11.90;9.90;;;;;;;-128.00;-1.00;-1.00;105567;1252;1004741;-80
2023/09/08 04:27:01;;;;;;;18.90;9.90;;;;;;;-128.00;-1.00;-1.00;105569;1252;1058890;-80
2023/09/08 04:29:28;;;;;;;15.20;9.80;;;;;;;-128.00;-1.00;-1.00;105539;1252;1004024;-80
2023/09/08 04:31:54;;;;;;;16.50;10.70;;;;;;;-128.00;-1.00;-1.00;105569;1251;1004283;-80
2023/09/08 04:34:21;;;;;;;14.60;10.40;;;;;;;-128.00;-1.00;-1.00;105523;1254;1004610;-80
2023/09/08 04:36:47;;;;;;;15.60;10.10;;;;;;;-128.00;-1.00;-1.00;105547;1253;1004620;-80
2023/09/08 04:39:15;;;;;;;11.90;9.20;;;;;;;-128.00;-1.00;-1.00;105540;1254;1003634;-80
2023/09/08 04:41:41;;;;;;;13.90;9.80;;;;;;;-128.00;-1.00;-1.00;105541;1253;1003848;-80
2023/09/08 04:44:08;;;;;;;15.20;11.60;;;;;;;-128.00;-1.00;-1.00;105535;1253;1003349;-80
2023/09/08 04:46:35;;;;;;;19.20;10.00;;;;;;;-128.00;-1.00;-1.00;105589;1250;1004341;-80
2023/09/08 04:49:01;;;;;;;23.90;9.90;;;;;;;-128.00;-1.00;-1.00;105641;1251;1004632;-80
2023/09/08 04:51:28;;;;;;;15.10;11.20;;;;;;;-128.00;-1.00;-1.00;105651;1251;1003746;-80
2023/09/08 04:53:54;;;;;;;22.30;12.20;;;;;;;-128.00;-1.00;-1.00;105623;1251;1004646;-80
2023/09/08 04:56:21;;;;;;;14.40;11.10;;;;;;;-128.00;-1.00;-1.00;105618;1255;1004789;-80
2023/09/08 04:58:47;;;;;;;15.30;10.60;;;;;;;-128.00;-1.00;-1.00;105633;1250;1005303;-80
2023/09/08 05:01:14;;;;;;;20.00;11.10;;;;;;;-128.00;-1.00;-1.00;105562;1254;1003479;-80
2023/09/08 05:03:40;;;;;;;25.00;22.10;;;;;;;-128.00;-1.00;-1.00;105531;1253;1004244;-80
2023/09/08 05:06:07;;;;;;;15.40;11.20;;;;;;;-128.00;-1.00;-1.00;105569;1252;1004566;-80
2023/09/08 05:08:33;;;;;;;13.10;10.10;;;;;;;-128.00;-1.00;-1.00;105596;1251;1003342;-80
2023/09/08 05:10:59;;;;;;;17.80;11.30;;;;;;;-128.00;-1.00;-1.00;105661;1254;1004911;-80
2023/09/08 05:13:27;;;;;;;15.30;10.60;;;;;;;-128.00;-1.00;-1.00;105713;1253;1004404;-80
2023/09/08 05:15:59;;;;;;;14.30;10.50;;;;;;;-128.00;-1.00;-1.00;105543;1252;1004785;-80
2023/09/08 05:18:27;;;;;;;16.50;10.40;;;;;;;-128.00;-1.00;-1.00;105572;1254;1046874;-80
2023/09/08 05:20:53;;;;;;;17.70;10.30;;;;;;;-128.00;-1.00;-1.00;105783;1253;1005227;-81
2023/09/08 05:23:20;;;;;;;14.80;10.10;;;;;;;-128.00;-1.00;-1.00;105627;1253;1004553;-80
2023/09/08 05:25:46;;;;;;;15.50;9.90;;;;;;;-128.00;-1.00;-1.00;105771;1254;1004448;-80
2023/09/08 05:28:13;;;;;;;15.40;9.40;;;;;;;-128.00;-1.00;-1.00;105627;1252;1004119;-80
2023/09/08 05:30:39;;;;;;;13.40;10.20;;;;;;;-128.00;-1.00;-1.00;105704;1256;1003643;-80
2023/09/08 05:33:06;;;;;;;12.80;10.60;;;;;;;-128.00;-1.00;-1.00;105664;1253;1004381;-80
2023/09/08 05:35:34;;;;;;;15.10;10.70;;;;;;;-128.00;-1.00;-1.00;105473;1254;1003697;-80
2023/09/08 05:38:00;;;;;;;17.90;10.90;;;;;;;-128.00;-1.00;-1.00;105357;1254;1004754;-80
2023/09/08 05:40:27;;;;;;;16.30;10.20;;;;;;;-128.00;-1.00;-1.00;105417;1253;1005237;-80
2023/09/08 05:42:53;;;;;;;17.30;9.90;;;;;;;-128.00;-1.00;-1.00;105453;1253;1004321;-81
2023/09/08 05:45:20;;;;;;;13.70;10.30;;;;;;;-128.00;-1.00;-1.00;105495;1251;1004632;-81
2023/09/08 05:47:47;;;;;;;21.40;11.40;;;;;;;-128.00;-1.00;-1.00;105492;1252;1004075;-80
2023/09/08 05:50:14;;;;;;;15.20;10.20;;;;;;;-128.00;-1.00;-1.00;105481;1252;1004101;-81
2023/09/08 05:52:40;;;;;;;15.00;9.50;;;;;;;-128.00;-1.00;-1.00;105514;1253;1004597;-80
2023/09/08 05:55:07;;;;;;;15.20;9.10;;;;;;;-128.00;-1.00;-1.00;105311;1253;1004142;-80
2023/09/08 05:57:34;;;;;;;11.40;9.00;;;;;;;-128.00;-1.00;-1.00;105493;1254;1004117;-80
2023/09/08 06:00:03;;;;;;;15.00;9.00;;;;;;;-128.00;-1.00;-1.00;105530;1253;1004055;-80
2023/09/08 06:02:29;;;;;;;12.60;9.60;;;;;;;-128.00;-1.00;-1.00;105572;1253;1058521;-80
2023/09/08 06:04:56;;;;;;;11.90;9.30;;;;;;;-128.00;-1.00;-1.00;105379;1251;1004329;-80
2023/09/08 06:07:23;;;;;;;13.60;10.80;;;;;;;-128.00;-1.00;-1.00;105598;1255;1005224;-80
2023/09/08 06:09:49;;;;;;;13.20;9.80;;;;;;;-128.00;-1.00;-1.00;105719;1253;1003607;-81
2023/09/08 06:12:16;;;;;;;14.60;10.90;;;;;;;-128.00;-1.00;-1.00;105765;1255;1004329;-80
2023/09/08 06:14:43;;;;;;;14.10;8.60;;;;;;;-128.00;-1.00;-1.00;105641;1251;1005137;-80
2023/09/08 06:17:10;;;;;;;10.30;8.70;;;;;;;-128.00;-1.00;-1.00;105822;1251;1004744;-81
2023/09/08 06:19:36;;;;;;;12.70;8.70;;;;;;;-128.00;-1.00;-1.00;105767;1251;1004576;-80
2023/09/08 06:22:03;;;;;;;12.20;9.80;;;;;;;-128.00;-1.00;-1.00;105701;1251;1003914;-80
2023/09/08 06:24:30;;;;;;;13.60;9.90;;;;;;;-128.00;-1.00;-1.00;105732;1251;1004622;-80
2023/09/08 06:26:57;;;;;;;11.60;9.20;;;;;;;-128.00;-1.00;-1.00;105465;1251;1003688;-80
2023/09/08 06:29:23;;;;;;;11.60;9.40;;;;;;;-128.00;-1.00;-1.00;105577;1251;1004107;-80
2023/09/08 06:31:50;;;;;;;14.10;8.70;;;;;;;-128.00;-1.00;-1.00;105548;1251;1004308;-80
2023/09/08 06:34:20;;;;;;;12.00;8.70;;;;;;;-128.00;-1.00;-1.00;105465;1254;1004426;-81
2023/09/08 06:36:47;;;;;;;9.60;8.10;;;;;;;-128.00;-1.00;-1.00;105549;1252;1062798;-80
2023/09/08 06:39:13;;;;;;;9.80;7.80;;;;;;;-128.00;-1.00;-1.00;105639;1254;1004869;-80
2023/09/08 06:41:40;;;;;;;13.60;9.20;;;;;;;-128.00;-1.00;-1.00;105524;1251;1004590;-81
2023/09/08 06:44:06;;;;;;;11.80;8.80;;;;;;;-128.00;-1.00;-1.00;105496;1256;1004641;-80
2023/09/08 06:46:33;;;;;;;10.30;8.00;;;;;;;-128.00;-1.00;-1.00;105570;1251;1004659;-80
2023/09/08 06:48:59;;;;;;;11.30;8.20;;;;;;;-128.00;-1.00;-1.00;105573;1251;1004601;-80
2023/09/08 06:51:26;;;;;;;10.10;8.10;;;;;;;-128.00;-1.00;-1.00;105417;1254;1004539;-80
2023/09/08 06:53:56;;;;;;;13.20;8.20;;;;;;;-128.00;-1.00;-1.00;105556;1251;1005068;-80
2023/09/08 06:56:23;;;;;;;10.00;7.10;;;;;;;-128.00;-1.00;-1.00;105567;1251;1047002;-81
2023/09/08 06:58:49;;;;;;;13.10;8.00;;;;;;;-128.00;-1.00;-1.00;105587;1250;1004263;-81
2023/09/08 07:01:16;;;;;;;14.70;7.90;;;;;;;-128.00;-1.00;-1.00;105583;1256;1005069;-81
2023/09/08 07:03:42;;;;;;;11.20;7.60;;;;;;;-128.00;-1.00;-1.00;105596;1251;1003659;-81
2023/09/08 07:06:09;;;;;;;10.70;8.80;;;;;;;-128.00;-1.00;-1.00;105551;1254;1005228;-81
2023/09/08 07:08:35;;;;;;;12.10;7.30;;;;;;;-128.00;-1.00;-1.00;105562;1251;1004320;-80
2023/09/08 07:11:02;;;;;;;12.30;7.10;;;;;;;-128.00;-1.00;-1.00;105553;1256;1004308;-81
2023/09/08 07:13:28;;;;;;;11.10;8.80;;;;;;;-128.00;-1.00;-1.00;105571;1251;1004540;-82
2023/09/08 07:15:55;;;;;;;10.80;7.90;;;;;;;-128.00;-1.00;-1.00;105548;1254;1003997;-81
2023/09/08 07:18:22;;;;;;;16.00;7.90;;;;;;;-128.00;-1.00;-1.00;105629;1251;1006018;-81
2023/09/08 07:20:48;;;;;;;11.30;7.10;;;;;;;-128.00;-1.00;-1.00;105734;1251;1003504;-82
2023/09/08 07:23:18;;;;;;;14.10;7.60;;;;;;;-128.00;-1.00;-1.00;105747;1251;1003940;-82
2023/09/08 07:25:48;;;;;;;10.70;7.30;;;;;;;-128.00;-1.00;-1.00;105706;1256;1061612;-82
2023/09/08 07:28:15;;;;;;;10.50;7.00;;;;;;;-128.00;-1.00;-1.00;105774;1251;1058963;-82
2023/09/08 07:30:42;;;;;;;17.80;7.00;;;;;;;-128.00;-1.00;-1.00;105739;1251;1004359;-82
2023/09/08 07:33:08;;;;;;;10.60;7.60;;;;;;;-128.00;-1.00;-1.00;105748;1251;1004102;-82
2023/09/08 07:35:39;;;;;;;9.40;7.00;;;;;;;-128.00;-1.00;-1.00;105735;1253;1004342;-82
2023/09/08 07:38:05;;;;;;;13.40;7.00;;;;;;;-128.00;-1.00;-1.00;105711;1251;1062465;-82
2023/09/08 07:40:35;;;;;;;10.60;7.50;;;;;;;-128.00;-1.00;-1.00;105798;1255;1003637;-82
2023/09/08 07:43:01;;;;;;;9.20;7.30;;;;;;;-128.00;-1.00;-1.00;105736;1251;1058812;-82
2023/09/08 07:45:28;;;;;;;13.00;8.00;;;;;;;-128.00;-1.00;-1.00;105787;1251;1004456;-82
2023/09/08 07:47:54;;;;;;;10.50;7.50;;;;;;;-128.00;-1.00;-1.00;105691;1251;1004134;-82
2023/09/08 07:50:23;;;;;;;11.10;7.60;;;;;;;-128.00;-1.00;-1.00;105436;1254;1003641;-82
2023/09/08 07:52:49;;;;;;;;;;;;;;;-128.00;-1.00;-1.00;105565;1251;1004203;-82
2023/09/08 07:55:16;;;;;;;12.00;7.00;;;;;;;-128.00;-1.00;-1.00;105659;1255;1004335;-82
2023/09/08 07:57:43;;;;;;;8.40;6.80;;;;;;;-128.00;-1.00;-1.00;105592;1252;1003905;-82
2023/09/08 08:00:12;;;;;;;13.20;7.40;;;;;;;-128.00;-1.00;-1.00;105741;1252;1004330;-82
2023/09/08 08:02:42;;;;;;;9.40;6.30;;;;;;;-128.00;-1.00;-1.00;105621;1251;1061857;-82
2023/09/08 08:05:08;;;;;;;9.20;6.40;;;;;;;-128.00;-1.00;-1.00;105791;1251;1057778;-82
2023/09/08 08:07:35;;;;;;;10.30;5.80;;;;;;;-128.00;-1.00;-1.00;105670;1251;1003813;-82
2023/09/08 08:10:02;;;;;;;9.50;6.40;;;;;;;-128.00;-1.00;-1.00;105761;1256;1004487;-82
2023/09/08 08:12:28;;;;;;;11.40;6.50;;;;;;;-128.00;-1.00;-1.00;105637;1253;1004758;-82
2023/09/08 08:14:55;;;;;;;11.70;6.50;;;;;;;-128.00;-1.00;-1.00;105808;1253;1003556;-82
2023/09/08 08:17:21;;;;;;;9.30;6.20;;;;;;;-128.00;-1.00;-1.00;105838;1253;1004354;-82
2023/09/08 08:19:48;;;;;;;9.70;6.50;;;;;;;-128.00;-1.00;-1.00;105711;1251;1003855;-83
2023/09/08 08:22:14;;;;;;;8.60;5.80;;;;;;;-128.00;-1.00;-1.00;105726;1255;1004331;-83
2023/09/08 08:24:41;;;;;;;11.80;6.10;;;;;;;-128.00;-1.00;-1.00;105721;1253;1004694;-83
2023/09/08 08:27:07;;;;;;;13.90;6.00;;;;;;;-128.00;-1.00;-1.00;105754;1251;1003399;-82
2023/09/08 08:29:34;;;;;;;7.50;5.90;;;;;;;-128.00;-1.00;-1.00;105556;1256;1004953;-82
2023/09/08 08:32:01;;;;;;;8.90;5.80;;;;;;;-128.00;-1.00;-1.00;105644;1255;1004783;-83
2023/09/08 08:34:27;;;;;;;9.20;5.40;;;;;;;-128.00;-1.00;-1.00;105618;1251;1004631;-83
2023/09/08 08:36:55;;;;;;;7.30;5.40;;;;;;;-128.00;-1.00;-1.00;105803;1251;1004930;-83
2023/09/08 08:39:22;;;;;;;6.70;5.50;;;;;;;-128.00;-1.00;-1.00;105643;1256;1004949;-83
2023/09/08 08:41:48;;;;;;;8.10;5.00;;;;;;;-128.00;-1.00;-1.00;105557;1256;1004741;-83
2023/09/08 08:44:15;;;;;;;8.30;6.20;;;;;;;-128.00;-1.00;-1.00;105556;1253;1004536;-83
2023/09/08 08:46:42;;;;;;;6.20;5.10;;;;;;;-128.00;-1.00;-1.00;105521;1251;1004497;-83
2023/09/08 08:49:08;;;;;;;7.00;4.90;;;;;;;-128.00;-1.00;-1.00;105685;1251;1004378;-83
2023/09/08 08:51:35;;;;;;;7.80;5.60;;;;;;;-128.00;-1.00;-1.00;105593;1251;1004348;-83
2023/09/08 08:54:04;;;;;;;7.90;6.50;;;;;;;-128.00;-1.00;-1.00;105534;1251;1004295;-83
2023/09/08 08:56:31;;;;;;;7.80;6.00;;;;;;;-128.00;-1.00;-1.00;105604;1254;1057763;-83
2023/09/08 08:58:58;;;;;;;;;;;;;;;-128.00;-1.00;-1.00;105631;1251;1004558;-83
2023/09/08 09:01:24;;;;;;;7.20;4.60;;;;;;;-128.00;-1.00;-1.00;105697;1251;1004379;-83
2023/09/08 09:03:51;;;;;;;5.80;4.70;;;;;;;-128.00;-1.00;-1.00;105788;1251;1004896;-83
2023/09/08 09:06:17;;;;;;;8.00;5.20;;;;;;;-128.00;-1.00;-1.00;105694;1251;1004952;-83
2023/09/08 09:08:45;;;;;;;6.50;4.60;;;;;;;-128.00;-1.00;-1.00;105653;1251;1004002;-83
2023/09/08 09:11:11;;;;;;;7.60;4.60;;;;;;;-128.00;-1.00;-1.00;105422;1254;1004326;-83
2023/09/08 09:13:38;;;;;;;8.50;5.00;;;;;;;-128.00;-1.00;-1.00;105673;1251;1003404;-83
2023/09/08 09:16:07;;;;;;;7.30;5.10;;;;;;;-128.00;-1.00;-1.00;105755;1251;1003969;-83
2023/09/08 09:18:34;;;;;;;8.40;5.20;;;;;;;-128.00;-1.00;-1.00;105774;1251;1058711;-83
2023/09/08 09:21:01;;;;;;;10.80;5.60;;;;;;;-128.00;-1.00;-1.00;105553;1251;1004514;-82
2023/09/08 09:23:34;;;;;;;10.40;5.90;;;;;;;-128.00;-1.00;-1.00;105619;1251;1005501;-83
2023/09/08 09:26:03;;;;;;;7.20;5.50;;;;;;;-128.00;-1.00;-1.00;105590;1251;1046382;-82
2023/09/08 09:28:30;;;;;;;7.20;4.90;;;;;;;-128.00;-1.00;-1.00;105631;1251;1061605;-82
2023/09/08 09:30:56;;;;;;;7.30;5.00;;;;;;;-128.00;-1.00;-1.00;105489;1251;1005317;-82
2023/09/08 09:33:23;;;;;;;7.10;5.30;;;;;;;-128.00;-1.00;-1.00;105402;1256;1004523;-82
2023/09/08 09:35:52;;;;;;;9.10;4.80;;;;;;;-128.00;-1.00;-1.00;105476;1255;1004054;-82
2023/09/08 09:38:19;;;;;;;7.70;5.20;;;;;;;-128.00;-1.00;-1.00;105630;1251;1004033;-81
2023/09/08 09:40:46;;;;;;;6.30;5.10;;;;;;;-128.00;-1.00;-1.00;105672;1251;1005007;-81
2023/09/08 09:43:13;;;;;;;6.60;4.40;;;;;;;-128.00;-1.00;-1.00;105583;1251;1004544;-82
2023/09/08 09:45:40;;;;;;;9.80;5.00;;;;;;;-128.00;-1.00;-1.00;105522;1254;1003669;-81
2023/09/08 09:48:08;;;;;;;9.70;5.30;;;;;;;-128.00;-1.00;-1.00;105471;1251;1005663;-82
2023/09/08 09:50:43;;;;;;;6.80;5.20;;;;;;;-128.00;-1.00;-1.00;105684;1251;1003625;-82
2023/09/08 09:53:11;;;;;;;14.80;6.70;;;;;;;-128.00;-1.00;-1.00;105567;1251;1062477;-81
2023/09/08 09:55:40;;;;;;;9.00;5.40;;;;;;;-128.00;-1.00;-1.00;105629;1251;1004559;-82
2023/09/08 09:58:07;;;;;;;7.80;5.80;;;;;;;-128.00;-1.00;-1.00;105620;1251;1059686;-82
2023/09/08 10:00:35;;;;;;;8.60;5.50;;;;;;;-128.00;-1.00;-1.00;105456;1252;1005141;-82
2023/09/08 10:03:01;;;;;;;9.90;6.00;;;;;;;-128.00;-1.00;-1.00;105506;1251;1004308;-82
2023/09/08 10:05:28;;;;;;;6.60;5.20;;;;;;;-128.00;-1.00;-1.00;105500;1251;1004526;-82
2023/09/08 10:07:54;;;;;;;5.90;4.80;;;;;;;-128.00;-1.00;-1.00;105581;1251;1003965;-81
2023/09/08 10:10:21;;;;;;;8.50;4.90;;;;;;;-128.00;-1.00;-1.00;105604;1251;1003607;-81
2023/09/08 10:12:55;;;;;;;9.30;4.60;;;;;;;-128.00;-1.00;-1.00;105507;1251;1005046;-82
2023/09/08 10:15:22;;;;;;;8.30;5.10;;;;;;;-128.00;-1.00;-1.00;105658;1251;1046311;-81
2023/09/08 10:17:54;;;;;;;8.30;4.80;;;;;;;-128.00;-1.00;-1.00;105629;1251;1004982;-81
2023/09/08 10:20:24;;;;;;;6.90;5.30;;;;;;;-128.00;-1.00;-1.00;105591;1251;1058215;-81
2023/09/08 10:23:07;;;;;;;10.10;5.10;;;;;;;-128.00;-1.00;-1.00;105595;1251;1058765;-81
2023/09/08 10:25:35;;;;;;;11.10;5.10;;;;;;;-128.00;-1.00;-1.00;105521;1251;1044786;-81
2023/09/08 10:28:03;;;;;;;8.10;5.40;;;;;;;-128.00;-1.00;-1.00;105524;1257;1004328;-81
2023/09/08 10:30:30;;;;;;;9.00;5.50;;;;;;;-128.00;-1.00;-1.00;105595;1256;1004511;-82
2023/09/08 10:32:57;;;;;;;6.10;4.50;;;;;;;-128.00;-1.00;-1.00;105561;1251;1004026;-81
2023/09/08 10:35:23;;;;;;;9.00;4.30;;;;;;;-128.00;-1.00;-1.00;105377;1253;1005015;-82
2023/09/08 10:37:50;;;;;;;8.10;4.40;;;;;;;-128.00;-1.00;-1.00;105555;1251;1004267;-82
2023/09/08 10:40:20;;;;;;;4.70;4.10;;;;;;;-128.00;-1.00;-1.00;105431;1256;1004534;-82
2023/09/08 10:42:47;;;;;;;6.00;4.60;;;;;;;-128.00;-1.00;-1.00;105442;1251;1061435;-82
2023/09/08 10:45:15;;;;;;;5.80;4.10;;;;;;;-128.00;-1.00;-1.00;105493;1250;1004711;-82
2023/09/08 10:47:47;;;;;;;8.60;4.80;;;;;;;-128.00;-1.00;-1.00;105536;1254;1004175;-82
2023/09/08 10:50:18;;;;;;;8.00;4.90;;;;;;;-128.00;-1.00;-1.00;105540;1251;1044497;-82
2023/09/08 10:52:45;;;;;;;9.40;5.50;;;;;;;-128.00;-1.00;-1.00;105474;1254;1046484;-82
2023/09/08 10:55:15;;;;;;;9.00;5.10;;;;;;;-128.00;-1.00;-1.00;105387;1254;1003820;-82
2023/09/08 10:57:44;;;;;;;8.50;5.40;;;;;;;-128.00;-1.00;-1.00;105654;1250;1057509;-82
2023/09/08 11:00:12;;;;;;;7.30;4.70;;;;;;;-128.00;-1.00;-1.00;105823;1251;1059790;-82
2023/09/08 11:02:47;;;;;;;8.60;5.00;;;;;;;-128.00;-1.00;-1.00;105517;1253;1003786;-81
2023/09/08 11:05:15;;;;;;;8.80;5.60;;;;;;;-128.00;-1.00;-1.00;105724;1251;1047652;-82
2023/09/08 11:07:42;;;;;;;9.70;5.30;;;;;;;-128.00;-1.00;-1.00;105720;1251;1004055;-82
2023/09/08 11:10:09;;;;;;;8.90;4.80;;;;;;;-128.00;-1.00;-1.00;105693;1251;1004833;-82